Leonie — PHLE — position and weather

sailwx.info

Track history (hours):
 
Tides and Currents Weather Stations Pressure Air Temp Water Temp Dewpoint Dewpoint Depression Visibility Wind Speed Wind Dir Waves Ship Positions

Leonie

Last reported at 2014-Sep-19 11:27 UTC. Time now 2014-Sep-19 11:50 UTC.
Position N 53°18' E 004°38'.

Length 90 m; draft 5.6 m.

Type: Cargo ship. MMSI: 244772000.

Date/timePositionNaut miles runAvg speedWind from/ knotsBaromVisibWave heightAir tempDewpointWater temp
2014-Sep-19 11:27N 53°18' E 004°38'9 9.8
2014-Sep-19 10:29N 53°10' E 004°30'9 9.6
2014-Sep-19 09:33N 53°02' E 004°24'9 9.3
2014-Sep-19 08:33N 52°54' E 004°18'9 8.5
2014-Sep-19 07:33N 52°46' E 004°10'9 8.9
2014-Sep-19 06:34N 52°39' E 004°03'9 8.9
2014-Sep-19 05:33N 52°31' E 003°56'9 8.8
2014-Sep-19 04:33N 52°22' E 003°53'9 8.8
2014-Sep-19 03:33N 52°14' E 003°54'9 9.3
2014-Sep-19 02:33N 52°05' E 003°58'10 9.7
2014-Sep-19 01:33N 51°58' E 004°09'7 6.8
2014-Sep-19 00:33N 51°53' E 004°17'0 0.4
2014-Sep-18 23:31N 51°53' E 004°16'0 0.0
2014-Sep-18 22:28N 51°53' E 004°16'0 0.0
2014-Sep-18 21:31N 51°53' E 004°16'0 0.0
2014-Sep-18 20:28N 51°53' E 004°16'0 0.0
2014-Sep-18 19:28N 51°53' E 004°16'0 0.0
2014-Sep-18 18:28N 51°53' E 004°16'0 0.0
2014-Sep-18 17:33N 51°53' E 004°16'0 0.0
2014-Sep-18 16:33N 51°53' E 004°16'0 0.3
2014-Sep-18 15:33N 51°53' E 004°17'7 7.0
2014-Sep-18 14:32N 51°54' E 004°28'0 0.0
2014-Sep-18 13:32N 51°54' E 004°28'0 0.0
2014-Sep-18 12:32N 51°54' E 004°28'0 0.0
2014-Sep-18 11:32N 51°54' E 004°28'0 0.0
2014-Sep-18 10:32N 51°54' E 004°28'0 0.0
2014-Sep-18 09:32N 51°54' E 004°28'0 0.0
2014-Sep-18 08:32N 51°54' E 004°28'0 0.0
2014-Sep-18 07:32N 51°54' E 004°28'0 0.0
2014-Sep-18 06:32N 51°54' E 004°28'0 0.0
2014-Sep-18 05:32N 51°54' E 004°28'0 0.0
2014-Sep-18 04:32N 51°54' E 004°28'0 0.0
2014-Sep-18 03:32N 51°54' E 004°28'0 0.0
2014-Sep-18 02:32N 51°54' E 004°28'0 0.0
2014-Sep-18 01:32N 51°54' E 004°28'0 0.0
2014-Sep-18 00:32N 51°54' E 004°28'0 0.0
2014-Sep-17 23:32N 51°54' E 004°28'0 0.0
2014-Sep-17 22:32N 51°54' E 004°28'0 0.0
2014-Sep-17 21:32N 51°54' E 004°28'0 0.0
2014-Sep-17 19:32N 51°54' E 004°28'0 0.0
2014-Sep-17 18:32N 51°54' E 004°28'0 0.0
2014-Sep-17 17:32N 51°54' E 004°28'0 0.0
2014-Sep-17 16:32N 51°54' E 004°28'0 0.0
2014-Sep-17 15:32N 51°54' E 004°28'0 0.0
2014-Sep-17 14:32N 51°54' E 004°28'0 0.0
2014-Sep-17 13:32N 51°54' E 004°28'0 0.0
2014-Sep-17 12:32N 51°54' E 004°28'0 0.0
2014-Sep-17 11:32N 51°54' E 004°28'0 0.0
2014-Sep-17 10:32N 51°54' E 004°28'0 0.0
2014-Sep-17 09:32N 51°54' E 004°28'0 0.0
2014-Sep-17 08:32N 51°54' E 004°28'0 0.0
2014-Sep-17 07:32N 51°54' E 004°28'0 0.0
2014-Sep-17 06:32N 51°54' E 004°28'0 0.0
2014-Sep-17 05:32N 51°54' E 004°28'0 0.0
2014-Sep-17 04:32N 51°54' E 004°28'0 0.0
2014-Sep-17 03:32N 51°54' E 004°28'0 0.0
2014-Sep-17 02:32N 51°54' E 004°28'0 0.0
2014-Sep-17 01:32N 51°54' E 004°28'0 0.0
2014-Sep-17 00:32N 51°54' E 004°28'0 0.0
2014-Sep-16 23:32N 51°54' E 004°28'0 0.0
2014-Sep-16 22:32N 51°54' E 004°28'0 0.0
2014-Sep-16 21:32N 51°54' E 004°28'0 0.0
2014-Sep-16 20:32N 51°54' E 004°28'0 0.0
2014-Sep-16 19:32N 51°54' E 004°28'0 0.0
2014-Sep-16 18:32N 51°54' E 004°28'0 0.0
2014-Sep-16 17:32N 51°54' E 004°28'0 0.0
2014-Sep-16 16:32N 51°54' E 004°28'0 0.0
2014-Sep-16 15:32N 51°54' E 004°28'0 0.0
2014-Sep-16 14:32N 51°54' E 004°28'0 0.0
2014-Sep-16 13:32N 51°54' E 004°28'0 0.0
2014-Sep-16 11:32N 51°54' E 004°28'0 0.0
2014-Sep-16 10:32N 51°54' E 004°28'0 0.0
2014-Sep-16 09:32N 51°54' E 004°28'0 0.0
2014-Sep-16 08:32N 51°54' E 004°28'0 0.0
2014-Sep-16 07:32N 51°54' E 004°28'0 0.0
2014-Sep-16 06:32N 51°54' E 004°28'0 0.0
2014-Sep-16 05:32N 51°54' E 004°28'0 0.0
2014-Sep-16 04:32N 51°54' E 004°28'0 0.0
2014-Sep-16 03:32N 51°54' E 004°28'0 0.0
2014-Sep-16 02:32N 51°54' E 004°28'0 0.0
2014-Sep-16 01:32N 51°54' E 004°28'0 0.0
2014-Sep-16 00:32N 51°54' E 004°28'0 0.0
2014-Sep-15 23:32N 51°54' E 004°28'0 0.0
2014-Sep-15 22:32N 51°54' E 004°28'0 0.0
2014-Sep-15 21:32N 51°54' E 004°28'0 0.0
2014-Sep-15 20:32N 51°54' E 004°28'0 0.0
2014-Sep-15 19:32N 51°54' E 004°28'0 0.0
2014-Sep-15 18:32N 51°54' E 004°28'0 0.0
2014-Sep-15 17:32N 51°54' E 004°28'0 0.0
2014-Sep-15 16:32N 51°54' E 004°28'0 0.0
2014-Sep-15 15:32N 51°54' E 004°28'0 0.0
2014-Sep-15 14:32N 51°54' E 004°28'0 0.0
2014-Sep-15 13:32N 51°54' E 004°28'0 0.0
2014-Sep-15 12:32N 51°54' E 004°28'0 0.0
2014-Sep-15 11:32N 51°54' E 004°28'0 0.0
2014-Sep-15 10:32N 51°54' E 004°28'0 0.0
2014-Sep-15 09:32N 51°54' E 004°28'0 0.0
2014-Sep-15 08:32N 51°54' E 004°28'0 0.0
2014-Sep-15 07:32N 51°54' E 004°28'165165.3
2014-Sep-15 06:32N 51°54' E 000°00'16582.7
2014-Sep-15 04:32N 51°54' E 004°28'0 0.0
2014-Sep-15 03:32N 51°54' E 004°28'0 0.0
2014-Sep-15 02:32N 51°54' E 004°28'0 0.0
2014-Sep-15 01:32N 51°54' E 004°28'0 0.0
2014-Sep-15 00:32N 51°54' E 004°28'0 0.0
2014-Sep-14 23:32N 51°54' E 004°28'0 0.0
2014-Sep-14 22:32N 51°54' E 004°28'0 0.0
2014-Sep-14 21:32N 51°54' E 004°28'0 0.0
2014-Sep-14 20:32N 51°54' E 004°28'0 0.0
2014-Sep-14 19:32N 51°54' E 004°28'0 0.0
2014-Sep-14 18:32N 51°54' E 004°28'0 0.0
2014-Sep-14 17:32N 51°54' E 004°28'0 0.0
2014-Sep-14 16:32N 51°54' E 004°28'0 0.0
2014-Sep-14 15:32N 51°54' E 004°28'0 0.0
2014-Sep-14 14:32N 51°54' E 004°28'0 0.0
2014-Sep-14 13:32N 51°54' E 004°28'0 0.0
2014-Sep-14 12:32N 51°54' E 004°28'0 0.0
2014-Sep-14 11:32N 51°54' E 004°28'0 0.0
2014-Sep-14 10:32N 51°54' E 004°28'0 0.0
2014-Sep-14 09:32N 51°54' E 004°28'0 0.0
2014-Sep-14 08:32N 51°54' E 004°28'0 0.0
2014-Sep-14 07:32N 51°54' E 004°28'0 0.0
2014-Sep-14 06:32N 51°54' E 004°28'0 0.0
2014-Sep-14 05:32N 51°54' E 004°28'0 0.0
2014-Sep-14 04:32N 51°54' E 004°28'0 0.0
2014-Sep-14 03:32N 51°54' E 004°28'0 0.0
2014-Sep-14 02:32N 51°54' E 004°28'0 0.0
2014-Sep-14 01:32N 51°54' E 004°28'0 0.0
2014-Sep-13 21:32N 51°54' E 004°28'0 0.0
2014-Sep-13 20:32N 51°54' E 004°28'0 0.0
2014-Sep-13 19:32N 51°54' E 004°28'0 0.0
2014-Sep-13 18:32N 51°54' E 004°28'0 0.0
2014-Sep-13 17:32N 51°54' E 004°28'0 0.0
2014-Sep-13 16:32N 51°54' E 004°28'0 0.0
2014-Sep-13 15:32N 51°54' E 004°28'0 0.0
2014-Sep-13 14:32N 51°54' E 004°28'0 0.0
2014-Sep-13 13:32N 51°54' E 004°28'0 0.0
2014-Sep-13 12:32N 51°54' E 004°28'0 0.0
2014-Sep-13 11:32N 51°54' E 004°28'0 0.0
2014-Sep-13 10:32N 51°54' E 004°28'0 0.0
2014-Sep-13 09:29N 51°54' E 004°28'0 0.0
2014-Sep-13 08:29N 51°54' E 004°28'0 0.0
2014-Sep-13 07:32N 51°54' E 004°28'0 0.0
2014-Sep-13 06:29N 51°54' E 004°28'0 0.0
2014-Sep-13 05:32N 51°54' E 004°28'0 0.0
2014-Sep-13 04:32N 51°54' E 004°28'0 0.0
2014-Sep-13 03:29N 51°54' E 004°28'0 0.0
2014-Sep-13 02:26N 51°54' E 004°28'0 0.0
2014-Sep-13 01:32N 51°54' E 004°28'0 0.0
2014-Sep-13 00:32N 51°54' E 004°28'0 0.0
2014-Sep-12 23:29N 51°54' E 004°28'0 0.0
2014-Sep-12 22:32N 51°54' E 004°28'0 0.0
2014-Sep-12 21:29N 51°54' E 004°28'0 0.0
2014-Sep-12 20:29N 51°54' E 004°28'0 0.0
2014-Sep-12 19:29N 51°54' E 004°28'0 0.0
2014-Sep-12 18:33N 51°54' E 004°28'8 7.9
2014-Sep-12 17:33N 51°55' E 004°15'1211.8
2014-Sep-12 16:33N 52°00' E 003°59'1212.2
2014-Sep-12 15:33N 51°58' E 003°39'1111.1
2014-Sep-12 14:33N 51°52' E 003°24'4 3.5
2014-Sep-12 13:28N 51°48' E 003°24'0 0.0
2014-Sep-12 12:31N 51°48' E 003°24'0 0.0
2014-Sep-12 11:13N 51°48' E 003°24'0 0.0
2014-Sep-12 10:04N 51°48' E 003°24'0 0.0
2014-Sep-12 09:10N 51°48' E 003°24'0 0.0
2014-Sep-12 08:25N 51°48' E 003°24'0 0.0
2014-Sep-12 07:28N 51°48' E 003°24'0 0.1
2014-Sep-12 06:31N 51°48' E 003°24'0 0.0
2014-Sep-12 04:28N 51°48' E 003°24'1 1.3
2014-Sep-12 03:31N 51°49' E 003°25'1010.2
2014-Sep-12 02:33N 51°47' E 003°09'2311.4
2014-Sep-12 00:33N 51°40' E 002°34'9 9.3
2014-Sep-11 23:33N 51°34' E 002°24'9 8.6
2014-Sep-11 22:31N 51°26' E 002°15'8 8.0
2014-Sep-11 21:32N 51°20' E 002°09'8 8.1
2014-Sep-11 20:33N 51°13' E 002°02'9 8.5
2014-Sep-11 19:34N 51°08' E 001°51'8 8.3
2014-Sep-11 18:33N 51°03' E 001°41'10 9.2
2014-Sep-11 17:32N 50°55' E 001°31'3110.4
2014-Sep-11 14:31N 50°32' E 000°59'1010.7
2014-Sep-11 13:34N 50°27' E 000°45'1111.1
2014-Sep-11 12:33N 50°24' E 000°28'  
Track history (hours):
 
Tides and Currents Weather Stations Pressure Air Temp Water Temp Dewpoint Dewpoint Depression Visibility Wind Speed Wind Dir Waves Ship Positions

Leonie

Last reported at 2014-Sep-19 11:27 UTC. Time now 2014-Sep-19 11:50 UTC.
Position N 53°18' E 004°38'.

Length 90 m; draft 5.6 m.

Type: Cargo ship. MMSI: 244772000.

Date/timePositionNaut miles runAvg speedWind from/ knotsBaromVisibWave heightAir tempDewpointWater temp
2014-Sep-19 11:27N 53°18' E 004°38'9 9.8
2014-Sep-19 10:29N 53°10' E 004°30'9 9.6
2014-Sep-19 09:33N 53°02' E 004°24'9 9.3
2014-Sep-19 08:33N 52°54' E 004°18'9 8.5
2014-Sep-19 07:33N 52°46' E 004°10'9 8.9
2014-Sep-19 06:34N 52°39' E 004°03'9 8.9
2014-Sep-19 05:33N 52°31' E 003°56'9 8.8
2014-Sep-19 04:33N 52°22' E 003°53'9 8.8
2014-Sep-19 03:33N 52°14' E 003°54'9 9.3
2014-Sep-19 02:33N 52°05' E 003°58'10 9.7
2014-Sep-19 01:33N 51°58' E 004°09'7 6.8
2014-Sep-19 00:33N 51°53' E 004°17'0 0.4
2014-Sep-18 23:31N 51°53' E 004°16'0 0.0
2014-Sep-18 22:28N 51°53' E 004°16'0 0.0
2014-Sep-18 21:31N 51°53' E 004°16'0 0.0
2014-Sep-18 20:28N 51°53' E 004°16'0 0.0
2014-Sep-18 19:28N 51°53' E 004°16'0 0.0
2014-Sep-18 18:28N 51°53' E 004°16'0 0.0
2014-Sep-18 17:33N 51°53' E 004°16'0 0.0
2014-Sep-18 16:33N 51°53' E 004°16'0 0.3
2014-Sep-18 15:33N 51°53' E 004°17'7 7.0
2014-Sep-18 14:32N 51°54' E 004°28'0 0.0
2014-Sep-18 13:32N 51°54' E 004°28'0 0.0
2014-Sep-18 12:32N 51°54' E 004°28'0 0.0
2014-Sep-18 11:32N 51°54' E 004°28'0 0.0
2014-Sep-18 10:32N 51°54' E 004°28'0 0.0
2014-Sep-18 09:32N 51°54' E 004°28'0 0.0
2014-Sep-18 08:32N 51°54' E 004°28'0 0.0
2014-Sep-18 07:32N 51°54' E 004°28'0 0.0
2014-Sep-18 06:32N 51°54' E 004°28'0 0.0
2014-Sep-18 05:32N 51°54' E 004°28'0 0.0
2014-Sep-18 04:32N 51°54' E 004°28'0 0.0
2014-Sep-18 03:32N 51°54' E 004°28'0 0.0
2014-Sep-18 02:32N 51°54' E 004°28'0 0.0
2014-Sep-18 01:32N 51°54' E 004°28'0 0.0
2014-Sep-18 00:32N 51°54' E 004°28'0 0.0
2014-Sep-17 23:32N 51°54' E 004°28'0 0.0
2014-Sep-17 22:32N 51°54' E 004°28'0 0.0
2014-Sep-17 21:32N 51°54' E 004°28'0 0.0
2014-Sep-17 19:32N 51°54' E 004°28'0 0.0
2014-Sep-17 18:32N 51°54' E 004°28'0 0.0
2014-Sep-17 17:32N 51°54' E 004°28'0 0.0
2014-Sep-17 16:32N 51°54' E 004°28'0 0.0
2014-Sep-17 15:32N 51°54' E 004°28'0 0.0
2014-Sep-17 14:32N 51°54' E 004°28'0 0.0
2014-Sep-17 13:32N 51°54' E 004°28'0 0.0
2014-Sep-17 12:32N 51°54' E 004°28'0 0.0
2014-Sep-17 11:32N 51°54' E 004°28'0 0.0
2014-Sep-17 10:32N 51°54' E 004°28'0 0.0
2014-Sep-17 09:32N 51°54' E 004°28'0 0.0
2014-Sep-17 08:32N 51°54' E 004°28'0 0.0
2014-Sep-17 07:32N 51°54' E 004°28'0 0.0
2014-Sep-17 06:32N 51°54' E 004°28'0 0.0
2014-Sep-17 05:32N 51°54' E 004°28'0 0.0
2014-Sep-17 04:32N 51°54' E 004°28'0 0.0
2014-Sep-17 03:32N 51°54' E 004°28'0 0.0
2014-Sep-17 02:32N 51°54' E 004°28'0 0.0
2014-Sep-17 01:32N 51°54' E 004°28'0 0.0
2014-Sep-17 00:32N 51°54' E 004°28'0 0.0
2014-Sep-16 23:32N 51°54' E 004°28'0 0.0
2014-Sep-16 22:32N 51°54' E 004°28'0 0.0
2014-Sep-16 21:32N 51°54' E 004°28'0 0.0
2014-Sep-16 20:32N 51°54' E 004°28'0 0.0
2014-Sep-16 19:32N 51°54' E 004°28'0 0.0
2014-Sep-16 18:32N 51°54' E 004°28'0 0.0
2014-Sep-16 17:32N 51°54' E 004°28'0 0.0
2014-Sep-16 16:32N 51°54' E 004°28'0 0.0
2014-Sep-16 15:32N 51°54' E 004°28'0 0.0
2014-Sep-16 14:32N 51°54' E 004°28'0 0.0
2014-Sep-16 13:32N 51°54' E 004°28'0 0.0
2014-Sep-16 11:32N 51°54' E 004°28'0 0.0
2014-Sep-16 10:32N 51°54' E 004°28'0 0.0
2014-Sep-16 09:32N 51°54' E 004°28'0 0.0
2014-Sep-16 08:32N 51°54' E 004°28'0 0.0
2014-Sep-16 07:32N 51°54' E 004°28'0 0.0
2014-Sep-16 06:32N 51°54' E 004°28'0 0.0
2014-Sep-16 05:32N 51°54' E 004°28'0 0.0
2014-Sep-16 04:32N 51°54' E 004°28'0 0.0
2014-Sep-16 03:32N 51°54' E 004°28'0 0.0
2014-Sep-16 02:32N 51°54' E 004°28'0 0.0
2014-Sep-16 01:32N 51°54' E 004°28'0 0.0
2014-Sep-16 00:32N 51°54' E 004°28'0 0.0
2014-Sep-15 23:32N 51°54' E 004°28'0 0.0
2014-Sep-15 22:32N 51°54' E 004°28'0 0.0
2014-Sep-15 21:32N 51°54' E 004°28'0 0.0
2014-Sep-15 20:32N 51°54' E 004°28'0 0.0
2014-Sep-15 19:32N 51°54' E 004°28'0 0.0
2014-Sep-15 18:32N 51°54' E 004°28'0 0.0
2014-Sep-15 17:32N 51°54' E 004°28'0 0.0
2014-Sep-15 16:32N 51°54' E 004°28'0 0.0
2014-Sep-15 15:32N 51°54' E 004°28'0 0.0
2014-Sep-15 14:32N 51°54' E 004°28'0 0.0
2014-Sep-15 13:32N 51°54' E 004°28'0 0.0
2014-Sep-15 12:32N 51°54' E 004°28'0 0.0
2014-Sep-15 11:32N 51°54' E 004°28'0 0.0
2014-Sep-15 10:32N 51°54' E 004°28'0 0.0
2014-Sep-15 09:32N 51°54' E 004°28'0 0.0
2014-Sep-15 08:32N 51°54' E 004°28'0 0.0
2014-Sep-15 07:32N 51°54' E 004°28'165165.3
2014-Sep-15 06:32N 51°54' E 000°00'16582.7
2014-Sep-15 04:32N 51°54' E 004°28'0 0.0
2014-Sep-15 03:32N 51°54' E 004°28'0 0.0
2014-Sep-15 02:32N 51°54' E 004°28'0 0.0
2014-Sep-15 01:32N 51°54' E 004°28'0 0.0
2014-Sep-15 00:32N 51°54' E 004°28'0 0.0
2014-Sep-14 23:32N 51°54' E 004°28'0 0.0
2014-Sep-14 22:32N 51°54' E 004°28'0 0.0
2014-Sep-14 21:32N 51°54' E 004°28'0 0.0
2014-Sep-14 20:32N 51°54' E 004°28'0 0.0
2014-Sep-14 19:32N 51°54' E 004°28'0 0.0
2014-Sep-14 18:32N 51°54' E 004°28'0 0.0
2014-Sep-14 17:32N 51°54' E 004°28'0 0.0
2014-Sep-14 16:32N 51°54' E 004°28'0 0.0
2014-Sep-14 15:32N 51°54' E 004°28'0 0.0
2014-Sep-14 14:32N 51°54' E 004°28'0 0.0
2014-Sep-14 13:32N 51°54' E 004°28'0 0.0
2014-Sep-14 12:32N 51°54' E 004°28'0 0.0
2014-Sep-14 11:32N 51°54' E 004°28'0 0.0
2014-Sep-14 10:32N 51°54' E 004°28'0 0.0
2014-Sep-14 09:32N 51°54' E 004°28'0 0.0
2014-Sep-14 08:32N 51°54' E 004°28'0 0.0
2014-Sep-14 07:32N 51°54' E 004°28'0 0.0
2014-Sep-14 06:32N 51°54' E 004°28'0 0.0
2014-Sep-14 05:32N 51°54' E 004°28'0 0.0
2014-Sep-14 04:32N 51°54' E 004°28'0 0.0
2014-Sep-14 03:32N 51°54' E 004°28'0 0.0
2014-Sep-14 02:32N 51°54' E 004°28'0 0.0
2014-Sep-14 01:32N 51°54' E 004°28'0 0.0
2014-Sep-13 21:32N 51°54' E 004°28'0 0.0
2014-Sep-13 20:32N 51°54' E 004°28'0 0.0
2014-Sep-13 19:32N 51°54' E 004°28'0 0.0
2014-Sep-13 18:32N 51°54' E 004°28'0 0.0
2014-Sep-13 17:32N 51°54' E 004°28'0 0.0
2014-Sep-13 16:32N 51°54' E 004°28'0 0.0
2014-Sep-13 15:32N 51°54' E 004°28'0 0.0
2014-Sep-13 14:32N 51°54' E 004°28'0 0.0
2014-Sep-13 13:32N 51°54' E 004°28'0 0.0
2014-Sep-13 12:32N 51°54' E 004°28'0 0.0
2014-Sep-13 11:32N 51°54' E 004°28'0 0.0
2014-Sep-13 10:32N 51°54' E 004°28'0 0.0
2014-Sep-13 09:29N 51°54' E 004°28'0 0.0
2014-Sep-13 08:29N 51°54' E 004°28'0 0.0
2014-Sep-13 07:32N 51°54' E 004°28'0 0.0
2014-Sep-13 06:29N 51°54' E 004°28'0 0.0
2014-Sep-13 05:32N 51°54' E 004°28'0 0.0
2014-Sep-13 04:32N 51°54' E 004°28'0 0.0
2014-Sep-13 03:29N 51°54' E 004°28'0 0.0
2014-Sep-13 02:26N 51°54' E 004°28'0 0.0
2014-Sep-13 01:32N 51°54' E 004°28'0 0.0
2014-Sep-13 00:32N 51°54' E 004°28'0 0.0
2014-Sep-12 23:29N 51°54' E 004°28'0 0.0
2014-Sep-12 22:32N 51°54' E 004°28'0 0.0
2014-Sep-12 21:29N 51°54' E 004°28'0 0.0
2014-Sep-12 20:29N 51°54' E 004°28'0 0.0
2014-Sep-12 19:29N 51°54' E 004°28'0 0.0
2014-Sep-12 18:33N 51°54' E 004°28'8 7.9
2014-Sep-12 17:33N 51°55' E 004°15'1211.8
2014-Sep-12 16:33N 52°00' E 003°59'1212.2
2014-Sep-12 15:33N 51°58' E 003°39'1111.1
2014-Sep-12 14:33N 51°52' E 003°24'4 3.5
2014-Sep-12 13:28N 51°48' E 003°24'0 0.0
2014-Sep-12 12:31N 51°48' E 003°24'0 0.0
2014-Sep-12 11:13N 51°48' E 003°24'0 0.0
2014-Sep-12 10:04N 51°48' E 003°24'0 0.0
2014-Sep-12 09:10N 51°48' E 003°24'0 0.0
2014-Sep-12 08:25N 51°48' E 003°24'0 0.0
2014-Sep-12 07:28N 51°48' E 003°24'0 0.1
2014-Sep-12 06:31N 51°48' E 003°24'0 0.0
2014-Sep-12 04:28N 51°48' E 003°24'1 1.3
2014-Sep-12 03:31N 51°49' E 003°25'1010.2
2014-Sep-12 02:33N 51°47' E 003°09'2311.4
2014-Sep-12 00:33N 51°40' E 002°34'9 9.3
2014-Sep-11 23:33N 51°34' E 002°24'9 8.6
2014-Sep-11 22:31N 51°26' E 002°15'8 8.0
2014-Sep-11 21:32N 51°20' E 002°09'8 8.1
2014-Sep-11 20:33N 51°13' E 002°02'9 8.5
2014-Sep-11 19:34N 51°08' E 001°51'8 8.3
2014-Sep-11 18:33N 51°03' E 001°41'10 9.2
2014-Sep-11 17:32N 50°55' E 001°31'3110.4
2014-Sep-11 14:31N 50°32' E 000°59'1010.7
2014-Sep-11 13:34N 50°27' E 000°45'1111.1
2014-Sep-11 12:33N 50°24' E 000°28'  

Dump ship's entire track history